Time;durP1;ratioP1;P1;durP2;ratioP2;P2;SDS_P1;SDS_P2;PMS_P1;PMS_P2;Temp;Humidity;BMP_temperature;BMP_pressure;BME280_temperature;BME280_humidity;BME280_pressure;Samples;Min_cycle;Max_cycle;Signal;HPM_P1;HPM_P2
2022/09/21 00:00:39;;;;;;;4.23;3.67;;;;;;;-141.97;52.07;47484.47;5012644;28;20178;-80
2022/09/21 00:03:06;;;;;;;6.37;3.90;;;;;;;-141.97;51.54;47467.19;5012034;28;20167;-80
2022/09/21 00:05:32;;;;;;;5.07;3.97;;;;;;;-141.97;51.85;47546.00;5022075;28;20170;-80
2022/09/21 00:08:04;;;;;;;6.20;4.10;;;;;;;-141.97;52.19;47530.59;5032239;28;20689;-80
2022/09/21 00:10:30;;;;;;;5.43;4.10;;;;;;;-141.97;52.22;47472.94;5030702;28;20170;-81
2022/09/21 00:12:57;;;;;;;5.60;4.10;;;;;;;-141.97;52.53;47507.53;5032250;28;20223;-80
2022/09/21 00:15:24;;;;;;;5.70;4.10;;;;;;;-141.97;53.24;47494.09;5022644;28;20257;-79
2022/09/21 00:17:52;;;;;;;4.93;4.00;;;;;;;-141.97;53.32;47595.97;5011913;28;20698;-79
2022/09/21 00:20:20;;;;;;;4.60;3.97;;;;;;;-141.97;53.47;47626.72;5011994;28;20226;-79
2022/09/21 00:22:46;;;;;;;4.80;4.30;;;;;;;-141.97;53.43;47484.47;5012268;28;20274;-80
2022/09/21 00:25:12;;;;;;;5.50;3.97;;;;;;;-141.97;53.06;47499.84;5017665;28;20229;-80
2022/09/21 00:27:38;;;;;;;4.73;4.13;;;;;;;-141.97;53.13;47526.75;5031962;28;20169;-80
2022/09/21 00:30:05;;;;;;;4.30;3.90;;;;;;;-141.97;53.27;47509.47;5030860;28;20624;-79
2022/09/21 00:32:32;;;;;;;3.97;3.57;;;;;;;-141.97;53.29;47503.69;5035994;28;20633;-80
2022/09/21 00:34:59;;;;;;;3.87;3.47;;;;;;;-141.97;52.49;47515.22;5034203;28;20171;-80
2022/09/21 00:37:25;;;;;;;4.17;3.77;;;;;;;-141.97;52.23;47474.88;5017060;28;20762;-79
2022/09/21 00:39:51;;;;;;;5.57;3.83;;;;;;;-141.97;52.03;47519.06;5012181;28;20643;-80
2022/09/21 00:42:20;;;;;;;4.83;3.83;;;;;;;-141.97;52.34;47509.47;5011948;28;20173;-80
2022/09/21 00:44:45;;;;;;;5.03;3.53;;;;;;;-141.97;52.79;47542.16;5014870;28;20175;-81
2022/09/21 00:47:14;;;;;;;5.97;3.70;;;;;;;-141.97;52.75;47476.78;5031918;28;20223;-80
2022/09/21 00:49:42;;;;;;;4.77;3.70;;;;;;;-141.97;53.46;47480.63;5031737;28;20162;-81
2022/09/21 00:52:11;;;;;;;4.87;3.80;;;;;;;-141.97;53.71;47522.91;5030370;28;20627;-80
2022/09/21 00:54:59;;;;;;;5.70;4.33;;;;;;;-141.97;53.96;47519.06;5029683;28;20162;-80
2022/09/21 00:57:29;;;;;;;4.40;4.00;;;;;;;-141.97;53.42;47499.84;5012480;28;20616;-81
2022/09/21 00:59:58;;;;;;;4.77;3.80;;;;;;;-141.97;53.18;47524.84;5012099;28;20273;-81
2022/09/21 01:02:24;;;;;;;5.33;3.87;;;;;;;-141.97;53.60;47522.91;5011726;28;20639;-81
2022/09/21 01:04:55;;;;;;;5.67;4.00;;;;;;;-141.97;53.40;47540.22;5014493;28;20178;-81
2022/09/21 01:07:28;;;;;;;5.67;4.07;;;;;;;-141.97;53.31;47542.16;5032388;28;20611;-81
2022/09/21 01:09:58;;;;;;;4.10;3.70;;;;;;;-141.97;53.35;47547.91;5032269;28;20241;-81
2022/09/21 01:12:36;;;;;;;4.23;3.53;;;;;;;-141.97;53.45;47511.38;5031965;28;20170;-81
2022/09/21 01:15:11;;;;;;;4.87;3.67;;;;;;;-141.97;53.73;47488.31;5027275;28;20715;-81
2022/09/21 01:17:55;;;;;;;3.80;3.50;;;;;;;-141.97;53.60;47538.28;5012625;28;20245;-81
2022/09/21 01:20:38;;;;;;;4.27;3.77;;;;;;;-141.97;53.49;47526.75;5012459;28;20232;-81
2022/09/21 01:23:16;;;;;;;5.40;4.00;;;;;;;-141.97;53.06;47534.44;5012503;28;20155;-80
2022/09/21 01:26:03;;;;;;;5.63;4.60;;;;;;;-141.97;53.58;47499.84;5020987;28;20181;-79
2022/09/21 01:28:53;;;;;;;4.70;3.87;;;;;;;-141.97;53.61;47507.53;5031565;28;20646;-79
2022/09/21 01:31:28;;;;;;;4.30;3.77;;;;;;;-141.97;53.87;47534.44;5031607;28;20177;-78
2022/09/21 01:34:00;;;;;;;4.57;3.50;;;;;;;-141.97;53.62;47490.25;5026759;28;20653;-78
2022/09/21 01:36:29;;;;;;;4.97;4.10;;;;;;;-141.97;53.27;47538.28;5015145;28;20171;-79
2022/09/21 01:39:00;;;;;;;6.17;4.23;;;;;;;-141.97;52.98;47496.00;5030800;28;20631;-79
2022/09/21 01:41:29;;;;;;;4.13;3.50;;;;;;;-141.97;52.78;47490.25;5014275;28;20297;-79
2022/09/21 01:44:02;;;;;;;4.10;3.70;;;;;;;-141.97;52.89;47517.16;5023225;28;20174;-79
2022/09/21 01:46:31;;;;;;;4.67;3.93;;;;;;;-141.97;52.49;47519.06;5034273;28;20162;-79
2022/09/21 01:49:03;;;;;;;4.57;3.80;;;;;;;-141.97;52.58;47499.84;5034197;28;20615;-80
2022/09/21 01:51:32;;;;;;;6.57;3.77;;;;;;;-141.97;52.86;47484.47;5034408;28;20166;-80
2022/09/21 01:54:05;;;;;;;3.90;3.60;;;;;;;-141.97;52.78;47521.00;5040957;28;20558;-80
2022/09/21 01:56:45;;;;;;;5.90;4.07;;;;;;;-141.97;52.69;47476.78;5014404;28;20245;-81
2022/09/21 01:59:42;;;;;;;4.20;3.80;;;;;;;-141.97;52.84;47519.06;5015187;28;20221;-81
2022/09/21 02:02:24;;;;;;;3.90;3.50;;;;;;;-141.97;53.13;47609.41;5014764;28;20177;-81
2022/09/21 02:04:49;;;;;;;5.93;3.90;;;;;;;-141.97;53.26;47513.31;5013629;28;20213;-81
2022/09/21 02:07:17;;;;;;;4.23;3.60;;;;;;;-141.97;52.73;47496.00;5014303;28;20191;-81
2022/09/21 02:09:45;;;;;;;4.93;4.00;;;;;;;-141.97;52.75;47519.06;5014641;28;20544;-81
2022/09/21 02:12:11;;;;;;;4.60;3.80;;;;;;;-141.97;52.65;47480.63;5014770;28;20631;-81
2022/09/21 02:14:37;;;;;;;6.60;4.03;;;;;;;-141.97;52.72;47549.84;5025371;28;20216;-81
2022/09/21 02:17:25;;;;;;;5.47;4.03;;;;;;;-141.97;52.54;47496.00;5033506;28;20606;-81
2022/09/21 02:20:06;;;;;;;5.07;3.87;;;;;;;-141.97;51.91;47522.91;5034119;28;20217;-80
2022/09/21 02:22:43;;;;;;;4.57;3.73;;;;;;;-141.97;51.82;47507.53;5033692;28;20245;-81
2022/09/21 02:25:14;;;;;;;5.07;4.07;;;;;;;-141.97;51.82;47519.06;5015178;28;20239;-80
2022/09/21 02:27:57;;;;;;;5.13;3.87;;;;;;;-141.97;52.25;47494.09;5013733;28;20261;-80
2022/09/21 02:30:24;;;;;;;4.03;3.63;;;;;;;-141.97;52.39;47522.91;5013745;28;20159;-80
2022/09/21 02:33:11;;;;;;;4.57;3.67;;;;;;;-141.97;52.28;47499.84;5013600;28;20253;-80
2022/09/21 02:36:06;;;;;;;6.37;3.70;;;;;;;-141.97;52.54;47505.63;5013594;28;20175;-79
2022/09/21 02:38:46;;;;;;;4.93;4.10;;;;;;;-141.97;52.86;47507.53;5013629;28;20187;-79
2022/09/21 02:41:33;;;;;;;5.23;3.97;;;;;;;-141.97;53.58;47522.91;5013615;28;20546;-80
2022/09/21 02:44:22;;;;;;;4.17;3.73;;;;;;;-141.97;53.57;47505.63;5019851;28;20664;-80
2022/09/21 02:46:59;;;;;;;4.67;3.90;;;;;;;-141.97;53.87;47492.16;5033101;28;20237;-80
2022/09/21 02:49:35;;;;;;;5.80;3.80;;;;;;;-141.97;54.17;47501.78;5034030;28;20162;-80
2022/09/21 02:52:10;;;;;;;5.50;4.00;;;;;;;-141.97;54.62;47519.06;5033298;28;20521;-79
2022/09/21 02:54:38;;;;;;;4.33;3.83;;;;;;;-141.97;54.72;47511.38;5021283;28;20178;-79
2022/09/21 02:57:05;;;;;;;4.23;3.83;;;;;;;-141.97;55.14;47521.00;5013334;28;20159;-79
2022/09/21 02:59:31;;;;;;;6.07;3.70;;;;;;;-141.97;55.17;47517.16;5013843;28;20197;-79
2022/09/21 03:01:57;;;;;;;4.73;4.20;;;;;;;-141.97;55.32;47526.75;5013593;28;20159;-80
2022/09/21 03:04:23;;;;;;;4.70;3.63;;;;;;;-141.97;55.67;47482.56;5024274;28;20364;-80
2022/09/21 03:06:49;;;;;;;4.20;3.80;;;;;;;-141.97;55.93;47488.31;5033383;28;20169;-80
2022/09/21 03:09:14;;;;;;;6.30;4.20;;;;;;;-141.97;56.10;47530.59;5033426;28;20173;-80
2022/09/21 03:11:42;;;;;;;4.63;4.13;;;;;;;-141.97;56.35;47484.47;5033753;28;20235;-80
2022/09/21 03:14:08;;;;;;;5.70;4.10;;;;;;;-141.97;56.48;47542.16;5025739;28;20659;-80
2022/09/21 03:16:37;;;;;;;5.53;4.07;;;;;;;-141.97;56.71;47522.91;5011723;28;20233;-80
2022/09/21 03:19:03;;;;;;;5.83;4.50;;;;;;;-141.97;57.03;47526.75;5013548;28;20195;-81
2022/09/21 03:21:29;;;;;;;9.60;4.57;;;;;;;-141.97;56.94;47519.06;5013148;28;20219;-81
2022/09/21 03:23:55;;;;;;;7.33;5.30;;;;;;;-141.97;56.57;47521.00;5020746;28;20177;-80
2022/09/21 03:26:21;;;;;;;7.13;4.60;;;;;;;-141.97;56.90;47546.00;5034245;28;20241;-80
2022/09/21 03:28:51;;;;;;;7.07;4.60;;;;;;;-141.97;56.74;47513.31;5033396;28;20675;-81
2022/09/21 03:31:16;;;;;;;7.77;4.80;;;;;;;-141.97;56.70;47515.22;5033689;28;20158;-81
2022/09/21 03:33:42;;;;;;;6.07;4.37;;;;;;;-141.97;56.89;47497.94;5015900;28;20205;-79
2022/09/21 03:36:07;;;;;;;6.77;4.57;;;;;;;-141.97;57.23;47572.91;5013147;28;20209;-80
2022/09/21 03:38:33;;;;;;;11.20;7.70;;;;;;;-141.97;57.28;47534.44;5013178;28;20236;-80
2022/09/21 03:40:59;;;;;;;9.00;6.20;;;;;;;-141.97;57.22;47519.06;5021834;28;20251;-80
2022/09/21 03:43:25;;;;;;;8.27;5.53;;;;;;;-141.97;57.00;47499.84;5033403;28;20696;-80
2022/09/21 03:45:50;;;;;;;9.63;6.30;;;;;;;-141.97;57.56;47542.16;5032743;28;20166;-79
2022/09/21 03:48:16;;;;;;;9.03;6.43;;;;;;;-141.97;57.71;47511.38;5032687;28;20162;-82
2022/09/21 03:50:41;;;;;;;7.33;4.63;;;;;;;-141.97;58.40;47532.53;5030795;28;20642;-81
2022/09/21 03:53:08;;;;;;;5.67;4.50;;;;;;;-141.97;59.07;47522.91;5032387;28;20178;-81
2022/09/21 03:55:34;;;;;;;5.87;4.50;;;;;;;-141.97;59.93;47484.47;5031670;28;20155;-84
2022/09/21 03:57:59;;;;;;;5.97;4.20;;;;;;;-141.97;59.82;47530.59;5034728;28;20170;-80
2022/09/21 04:00:26;;;;;;;5.00;4.47;;;;;;;-141.97;60.15;47542.16;5032175;28;20170;-82
2022/09/21 04:02:51;;;;;;;6.07;4.40;;;;;;;-141.97;60.01;47492.16;5013902;28;20159;-81
2022/09/21 04:05:17;;;;;;;7.00;4.70;;;;;;;-141.97;59.92;47499.84;5013983;28;20185;-85
2022/09/21 04:07:44;;;;;;;7.53;4.70;;;;;;;-141.97;59.57;47547.91;5013555;28;20608;-82
2022/09/21 04:10:12;;;;;;;7.57;4.97;;;;;;;-141.97;59.06;47503.69;5013788;28;20151;-82
2022/09/21 04:12:40;;;;;;;10.63;6.50;;;;;;;-141.97;58.96;47547.91;5013782;28;20162;-84
2022/09/21 04:15:06;;;;;;;8.13;5.47;;;;;;;-141.97;58.87;47513.31;4998482;28;20189;-82
2022/09/21 04:17:32;;;;;;;6.47;4.87;;;;;;;-141.97;58.77;47513.31;5030175;28;20375;-81
2022/09/21 04:19:58;;;;;;;9.87;5.43;;;;;;;-141.97;58.88;47522.91;5028524;28;20204;-80
2022/09/21 04:22:24;;;;;;;9.87;6.83;;;;;;;-141.97;58.86;47569.06;5018212;28;20171;-81
2022/09/21 04:24:50;;;;;;;16.07;7.57;;;;;;;-141.97;58.89;47546.00;5012334;28;20716;-80
2022/09/21 04:27:17;;;;;;;11.77;6.10;;;;;;;-141.97;58.65;47501.78;5031302;28;20256;-81
2022/09/21 04:29:43;;;;;;;9.67;5.50;;;;;;;-141.97;58.95;47557.53;5031761;28;20168;-80
2022/09/21 04:32:09;;;;;;;11.23;5.20;;;;;;;-141.97;58.60;47501.78;5032849;28;20224;-89
2022/09/21 04:34:38;;;;;;;15.90;10.13;;;;;;;-141.97;58.82;47361.47;5036666;28;20192;-87
2022/09/21 04:37:06;;;;;;;19.07;13.30;;;;;;;-141.97;58.79;47511.38;5029024;28;20182;-86
2022/09/21 04:39:33;;;;;;;13.13;8.47;;;;;;;-141.97;58.24;47546.00;5032638;28;20200;-84
2022/09/21 04:41:58;;;;;;;9.43;6.07;;;;;;;-141.97;58.44;47526.75;5033665;28;20170;-88
2022/09/21 04:44:24;;;;;;;16.73;5.33;;;;;;;-141.97;58.49;47530.59;5034681;28;20165;-88
2022/09/21 04:46:49;;;;;;;10.00;5.17;;;;;;;-141.97;58.59;47534.44;5028521;28;20613;-86
2022/09/21 04:49:15;;;;;;;8.03;4.97;;;;;;;-141.97;58.68;47476.78;5033751;28;20248;-87
2022/09/21 04:51:40;;;;;;;8.03;4.80;;;;;;;-141.97;58.45;47542.16;5033156;28;20260;-88
2022/09/21 04:54:06;;;;;;;6.70;4.90;;;;;;;-141.97;58.38;47640.16;5023691;28;20723;-88
2022/09/21 04:56:32;;;;;;;10.03;5.20;;;;;;;-141.97;58.37;47511.38;5039610;28;20184;-87
2022/09/21 04:58:57;;;;;;;12.00;5.10;;;;;;;-141.97;57.94;47492.16;5041617;28;20732;-86
2022/09/21 05:01:22;;;;;;;7.63;4.80;;;;;;;-141.97;57.87;47534.44;5037243;28;20162;-86
2022/09/21 05:03:48;;;;;;;6.23;4.90;;;;;;;-141.97;58.31;47551.75;5033078;28;20242;-86
2022/09/21 05:06:13;;;;;;;8.43;5.00;;;;;;;-141.97;58.60;47538.28;5033579;28;20185;-87
2022/09/21 05:11:23;;;;;;;7.70;5.00;;;;;;;-141.97;60.43;47542.16;5041750;28;20184;-86
2022/09/21 05:13:49;;;;;;;7.87;5.00;;;;;;;-141.97;59.83;47511.38;5043708;28;20760;-83
2022/09/21 05:16:16;;;;;;;8.13;5.67;;;;;;;-141.97;58.69;47659.38;5030133;28;20271;-85
2022/09/21 05:18:41;;;;;;;6.23;4.70;;;;;;;-141.97;58.71;47519.06;5035549;28;20216;-86
2022/09/21 05:21:09;;;;;;;6.17;4.20;;;;;;;-141.97;58.83;47542.16;5030203;28;20535;-85
2022/09/21 05:23:35;;;;;;;5.67;4.60;;;;;;;-141.97;58.70;47651.69;5028806;28;20166;-88
2022/09/21 05:26:00;;;;;;;9.83;4.60;;;;;;;-141.97;57.98;47559.44;5036636;28;20644;-85
2022/09/21 05:28:26;;;;;;;6.93;4.70;;;;;;;-141.97;57.12;47449.88;5021118;28;20783;-86
2022/09/21 05:31:01;;;;;;;10.67;4.90;;;;;;;-141.97;57.08;47553.69;5015989;28;20261;-86
2022/09/21 05:33:29;;;;;;;7.10;4.50;;;;;;;-141.97;56.47;47542.16;5018891;28;20249;-88
2022/09/21 05:36:06;;;;;;;6.80;4.60;;;;;;;-141.97;56.07;47549.84;5017512;28;20205;-88
2022/09/21 05:38:32;;;;;;;5.47;4.47;;;;;;;-141.97;55.80;47444.13;5019937;28;20213;-88
2022/09/21 05:40:57;;;;;;;11.60;4.70;;;;;;;-141.97;56.28;47649.78;5021934;28;20186;-88
2022/09/21 05:43:23;;;;;;;8.00;4.63;;;;;;;-141.97;56.82;47419.13;5021613;28;20186;-87
2022/09/21 05:45:57;;;;;;;7.53;4.90;;;;;;;-141.97;56.27;47399.91;5019072;28;20830;-88
2022/09/21 05:48:28;;;;;;;6.23;4.80;;;;;;;-141.97;55.96;47353.78;5017219;28;20214;-88
2022/09/21 05:51:03;;;;;;;7.40;5.00;;;;;;;-141.97;55.42;47515.22;5013502;28;20573;-87
2022/09/21 05:53:59;;;;;;;7.43;5.40;;;;;;;-141.97;53.76;47546.00;5017703;28;20665;-87
2022/09/21 05:56:42;;;;;;;8.30;4.90;;;;;;;-141.97;52.80;47538.28;5017892;28;20159;-87
2022/09/21 05:59:40;;;;;;;7.87;4.77;;;;;;;-141.97;52.78;47513.31;5025684;28;20194;-86
2022/09/21 06:02:05;;;;;;;7.67;5.03;;;;;;;-141.97;53.01;47526.75;5018771;28;20177;-89
2022/09/21 06:04:31;;;;;;;8.70;4.80;;;;;;;-141.97;53.33;47494.09;5016589;28;20163;-87
2022/09/21 06:06:56;;;;;;;9.00;5.47;;;;;;;-141.97;53.53;47513.31;5014473;28;20201;-86
2022/09/21 06:09:22;;;;;;;9.17;5.20;;;;;;;-141.97;53.69;47499.84;5014800;28;20171;-87
2022/09/21 06:11:47;;;;;;;7.23;5.10;;;;;;;-141.97;53.19;47507.53;5015428;28;20166;-85
2022/09/21 06:14:12;;;;;;;8.77;4.70;;;;;;;-141.97;53.48;47519.06;5012801;28;20181;-85
2022/09/21 06:16:42;;;;;;;6.47;4.67;;;;;;;-141.97;52.83;47492.16;5020416;28;20648;-86
2022/09/21 06:19:13;;;;;;;9.00;5.40;;;;;;;-141.97;52.68;47519.06;5015239;28;20194;-86
2022/09/21 06:21:38;;;;;;;8.47;4.97;;;;;;;-141.97;52.20;47530.59;5015701;28;20159;-86
2022/09/21 06:24:04;;;;;;;8.10;4.90;;;;;;;-141.97;52.52;47522.91;5015343;28;20221;-86
2022/09/21 06:26:29;;;;;;;6.50;4.50;;;;;;;-141.97;52.90;47494.09;5015089;28;20254;-86
2022/09/21 06:28:54;;;;;;;7.23;4.60;;;;;;;-141.97;52.99;47499.84;5015153;28;20159;-86
2022/09/21 06:31:20;;;;;;;6.30;4.40;;;;;;;-141.97;52.59;47492.16;5014949;28;20170;-87
2022/09/21 06:33:46;;;;;;;5.60;4.40;;;;;;;-141.97;53.16;47511.38;5014883;28;20170;-87
2022/09/21 06:36:13;;;;;;;5.43;4.47;;;;;;;-141.97;52.83;47511.38;5017073;28;20190;-87
2022/09/21 06:38:38;;;;;;;7.83;4.40;;;;;;;-141.97;52.85;47507.53;5017352;28;20249;-87
2022/09/21 06:41:04;;;;;;;7.00;4.50;;;;;;;-141.97;52.68;47521.00;5014907;28;20163;-88
2022/09/21 06:43:30;;;;;;;8.23;4.37;;;;;;;-141.97;52.70;47534.44;5015000;28;20167;-88
2022/09/21 06:45:59;;;;;;;7.17;4.23;;;;;;;-141.97;51.93;47496.00;5014372;28;20166;-86
2022/09/21 06:48:25;;;;;;;7.07;4.40;;;;;;;-141.97;50.98;47494.09;5016893;28;20162;-87
2022/09/21 06:51:02;;;;;;;7.23;4.80;;;;;;;-141.97;49.87;47499.84;5014745;28;20620;-87
2022/09/21 06:53:29;;;;;;;5.90;4.50;;;;;;;-141.97;49.06;47457.56;5007248;28;20214;-86
2022/09/21 06:56:08;;;;;;;5.27;3.97;;;;;;;-141.97;48.64;47426.81;4999032;28;20187;-88
2022/09/21 06:58:36;;;;;;;5.27;3.70;;;;;;;-141.97;48.50;47449.88;4998984;28;20230;-88
2022/09/21 07:01:10;;;;;;;6.80;4.40;;;;;;;-141.97;47.79;47319.19;4994704;28;20218;-87
2022/09/21 07:03:36;;;;;;;4.17;3.43;;;;;;;-141.97;46.55;47499.84;4996241;28;20191;-87
2022/09/21 07:06:02;;;;;;;4.17;3.10;;;;;;;-141.97;46.09;47472.94;4995627;28;20159;-87
2022/09/21 07:08:28;;;;;;;5.60;3.60;;;;;;;-141.97;45.38;47588.28;4997233;28;20703;-86
2022/09/21 07:10:57;;;;;;;3.40;3.10;;;;;;;-141.97;45.38;47515.22;5013803;28;20217;-87
2022/09/21 07:13:22;;;;;;;5.30;3.00;;;;;;;-141.97;44.51;47348.03;5014243;28;20162;-87
2022/09/21 07:15:48;;;;;;;4.50;3.33;;;;;;;-141.97;44.25;47315.34;5013393;28;20181;-86
2022/09/21 07:18:14;;;;;;;4.27;3.70;;;;;;;-141.97;43.50;47361.47;5015011;28;20201;-87
2022/09/21 07:20:40;;;;;;;4.33;2.90;;;;;;;-141.97;42.61;47469.09;5014652;28;20177;-87
2022/09/21 07:23:14;;;;;;;4.60;2.80;;;;;;;-141.97;42.71;47338.41;5014841;28;20709;-87
2022/09/21 07:25:40;;;;;;;3.63;2.73;;;;;;;-141.97;42.96;47557.53;5014523;28;20631;-86
2022/09/21 07:28:06;;;;;;;3.73;2.80;;;;;;;-141.97;42.74;47661.31;5002406;28;20175;-86
2022/09/21 07:30:31;;;;;;;6.47;3.30;;;;;;;-141.97;42.55;47463.34;5016361;28;20181;-84
2022/09/21 07:32:57;;;;;;;7.60;3.60;;;;;;;-141.97;41.78;47594.03;5025614;28;20171;-87
2022/09/21 07:35:23;;;;;;;6.47;3.90;;;;;;;-141.97;41.10;47494.09;5016121;28;20159;-87
2022/09/21 07:37:48;;;;;;;5.77;3.00;;;;;;;-141.97;40.59;47578.66;5029941;28;20201;-87
2022/09/21 07:40:14;;;;;;;4.40;2.70;;;;;;;-141.97;40.94;47275.00;5014584;28;20197;-87
2022/09/21 07:42:40;;;;;;;7.77;5.30;;;;;;;-141.97;40.60;47430.66;5014420;28;20192;-87
2022/09/21 07:45:06;;;;;;;9.30;4.50;;;;;;;-141.97;40.09;47432.59;5017209;28;20170;-88
2022/09/21 07:47:31;;;;;;;5.80;4.37;;;;;;;-141.97;40.05;47636.31;5014503;28;20165;-86
2022/09/21 07:49:57;;;;;;;10.73;5.00;;;;;;;-141.97;40.48;47438.34;5014214;28;20159;-87
2022/09/21 07:52:22;;;;;;;4.60;3.70;;;;;;;-141.97;40.37;47492.16;5013976;28;20252;-85
2022/09/21 07:54:48;;;;;;;5.70;3.50;;;;;;;-141.97;41.10;47530.59;5013496;28;20178;-86
2022/09/21 07:59:57;;;;;;;8.03;3.30;;;;;;;-141.97;40.52;47469.09;5013594;28;20197;-86
2022/09/21 08:02:24;;;;;;;4.47;2.93;;;;;;;-141.97;41.13;47480.63;5012841;28;20183;-86
2022/09/21 08:04:49;;;;;;;4.83;3.00;;;;;;;-141.97;40.93;47461.41;5013257;28;20241;-85
2022/09/21 08:07:15;;;;;;;4.40;2.73;;;;;;;-141.97;40.82;47480.63;5013811;28;20324;-85
2022/09/21 08:09:40;;;;;;;7.37;3.00;;;;;;;-141.97;40.41;47449.88;5013384;28;20159;-87
2022/09/21 08:12:07;;;;;;;5.17;2.93;;;;;;;-141.97;40.58;47497.94;5015436;28;20339;-87
2022/09/21 08:14:34;;;;;;;7.13;2.63;;;;;;;-141.97;40.14;47522.91;5015294;28;20258;-87
2022/09/21 08:17:00;;;;;;;3.00;2.53;;;;;;;-141.97;39.37;47476.78;5013906;28;20233;-87
2022/09/21 08:19:26;;;;;;;3.70;2.50;;;;;;;-141.97;38.53;47426.81;5013044;28;20222;-87
2022/09/21 08:21:52;;;;;;;2.83;2.30;;;;;;;-141.97;38.67;47449.88;5012124;28;20181;-86
2022/09/21 08:24:18;;;;;;;3.90;2.50;;;;;;;-141.97;37.99;47507.53;5013149;28;20190;-87
2022/09/21 08:26:44;;;;;;;3.37;2.40;;;;;;;-141.97;38.05;47638.25;5013007;28;20162;-87
2022/09/21 08:29:09;;;;;;;3.27;2.50;;;;;;;-141.97;37.68;47469.09;5012569;28;20269;-87
2022/09/21 08:31:34;;;;;;;2.53;2.00;;;;;;;-141.97;38.02;47276.91;5012213;28;20198;-87
2022/09/21 08:34:00;;;;;;;2.53;2.10;;;;;;;-141.97;37.90;47538.28;5010466;28;20209;-87
2022/09/21 08:36:25;;;;;;;2.40;2.10;;;;;;;-141.97;36.70;47434.50;5012586;28;20218;-87
2022/09/21 08:38:51;;;;;;;4.90;2.70;;;;;;;-141.97;37.19;47471.03;5012765;28;20646;-87
2022/09/21 08:41:25;;;;;;;3.20;2.00;;;;;;;-141.97;37.28;47459.50;5010826;28;20613;-87
2022/09/21 08:43:56;;;;;;;3.57;2.00;;;;;;;-141.97;36.96;47469.09;5012750;28;20167;-87
2022/09/21 08:46:26;;;;;;;3.00;2.10;;;;;;;-141.97;36.71;47465.25;5012540;28;20171;-87
2022/09/21 08:49:10;;;;;;;2.43;1.90;;;;;;;-141.97;36.07;47465.25;5012938;28;20194;-88
2022/09/21 08:51:45;;;;;;;4.60;2.00;;;;;;;-141.97;35.64;47476.78;5012842;28;20257;-86
2022/09/21 08:54:24;;;;;;;1.97;1.50;;;;;;;-141.97;35.52;47434.50;5012848;28;20170;-88
2022/09/21 08:56:49;;;;;;;1.73;1.60;;;;;;;-141.97;35.20;47478.72;5012984;28;20678;-87
2022/09/21 08:59:15;;;;;;;3.50;1.60;;;;;;;-141.97;35.22;47472.94;5013183;28;20233;-86
2022/09/21 09:02:03;;;;;;;4.40;1.77;;;;;;;-141.97;35.30;47446.03;5012825;28;20181;-86
2022/09/21 09:05:02;;;;;;;2.20;1.70;;;;;;;-141.97;35.28;47634.41;5015898;28;20186;-87
2022/09/21 09:07:47;;;;;;;3.83;1.67;;;;;;;-141.97;34.39;47461.41;5020469;28;20628;-88
2022/09/21 09:10:31;;;;;;;1.77;1.60;;;;;;;-141.97;34.55;47486.41;4997325;28;20649;-86
2022/09/21 09:13:22;;;;;;;2.17;1.73;;;;;;;-141.97;34.39;47434.50;4996098;28;20687;-86
2022/09/21 09:16:06;;;;;;;2.67;1.70;;;;;;;-141.97;34.27;47430.66;4991901;28;20195;-87
2022/09/21 09:18:44;;;;;;;2.20;1.57;;;;;;;-141.97;33.75;47465.25;4991414;28;20202;-86
2022/09/21 09:21:30;;;;;;;2.50;1.70;;;;;;;-141.97;33.58;47421.06;4990832;28;20193;-87
2022/09/21 09:24:06;;;;;;;2.60;1.40;;;;;;;-141.97;33.29;47476.78;4990635;28;20175;-85
2022/09/21 09:26:51;;;;;;;1.60;1.50;;;;;;;-141.97;33.67;47461.41;4991133;28;20175;-86
2022/09/21 09:29:22;;;;;;;1.67;1.50;;;;;;;-141.97;34.24;47449.88;4991800;28;20182;-88
2022/09/21 09:31:53;;;;;;;1.50;1.20;;;;;;;-141.97;34.23;47453.72;4995661;28;20179;-88
2022/09/21 09:34:31;;;;;;;4.00;1.60;;;;;;;-141.97;33.87;47447.97;4994084;28;20187;-87
2022/09/21 09:37:00;;;;;;;1.43;1.33;;;;;;;-141.97;33.45;47438.34;4991124;28;20310;-87
2022/09/21 09:39:28;;;;;;;1.77;1.60;;;;;;;-141.97;33.96;47376.84;4991792;28;20200;-87
2022/09/21 09:42:05;;;;;;;1.40;1.30;;;;;;;-141.97;33.60;47438.34;4991771;28;20195;-87
2022/09/21 09:44:46;;;;;;;1.60;1.50;;;;;;;-141.97;32.60;47440.28;4991783;28;20690;-87
2022/09/21 09:47:20;;;;;;;3.00;1.57;;;;;;;-141.97;34.03;47422.97;5003135;28;20666;-87
2022/09/21 09:49:51;;;;;;;1.87;1.43;;;;;;;-141.97;33.54;47453.72;5020608;28;20661;-86
2022/09/21 09:52:17;;;;;;;2.83;1.40;;;;;;;-141.97;34.03;47465.25;5019617;28;20209;-86
2022/09/21 09:54:43;;;;;;;3.50;1.60;;;;;;;-141.97;33.27;47446.03;5015294;28;20174;-87
2022/09/21 09:57:09;;;;;;;2.00;1.40;;;;;;;-141.97;33.48;47424.91;5015661;28;20225;-87
2022/09/21 09:59:54;;;;;;;2.60;1.30;;;;;;;-141.97;33.00;47449.88;5017751;28;20277;-87
2022/09/21 10:02:26;;;;;;;2.30;1.30;;;;;;;-141.97;33.43;47472.94;5023397;28;20230;-86
2022/09/21 10:05:04;;;;;;;1.80;1.40;;;;;;;-141.97;33.35;47457.56;5022627;28;20163;-87
2022/09/21 10:07:41;;;;;;;1.50;1.27;;;;;;;-141.97;33.59;47422.97;5017345;28;20184;-88
2022/09/21 10:10:31;;;;;;;2.93;1.57;;;;;;;-141.97;33.20;47461.41;5015777;28;20174;-87
2022/09/21 10:13:10;;;;;;;1.70;1.30;;;;;;;-141.97;32.85;47486.41;5016086;28;20169;-87
2022/09/21 10:15:41;;;;;;;1.97;1.53;;;;;;;-141.97;33.25;47449.88;5014432;28;20186;-87
2022/09/21 10:18:20;;;;;;;2.60;1.40;;;;;;;-141.97;33.62;47411.44;5014075;28;20186;-87
2022/09/21 10:20:54;;;;;;;3.63;1.87;;;;;;;-141.97;33.36;47438.34;5014470;28;20177;-87
2022/09/21 10:23:21;;;;;;;3.77;1.60;;;;;;;-141.97;32.92;47440.28;5015375;28;21041;-88
2022/09/21 10:25:59;;;;;;;6.60;1.90;;;;;;;-141.97;32.65;47455.66;5014954;28;20194;-88
2022/09/21 10:28:25;;;;;;;3.77;2.20;;;;;;;-141.97;33.04;47474.88;5015719;28;20589;-88
2022/09/21 10:31:08;;;;;;;3.93;1.60;;;;;;;-141.97;32.83;47472.94;5015287;28;20175;-88
2022/09/21 10:33:45;;;;;;;6.60;2.10;;;;;;;-141.97;32.77;47447.97;5014913;28;20162;-88
2022/09/21 10:36:54;;;;;;;2.83;1.90;;;;;;;-141.97;33.41;47486.41;5015765;28;20641;-87
2022/09/21 10:39:30;;;;;;;2.50;1.30;;;;;;;-141.97;31.93;47465.25;4993315;28;20226;-88
2022/09/21 10:41:55;;;;;;;4.20;2.20;;;;;;;-141.97;32.31;47463.34;4993668;28;20599;-87
2022/09/21 10:44:25;;;;;;;5.10;2.00;;;;;;;-141.97;32.87;47457.56;4993260;28;20226;-88
2022/09/21 10:46:51;;;;;;;3.50;1.90;;;;;;;-141.97;33.56;47622.88;4995582;28;20259;-88
2022/09/21 10:49:23;;;;;;;3.77;1.77;;;;;;;-141.97;33.46;47469.09;4994212;28;20605;-87
2022/09/21 10:51:51;;;;;;;4.73;2.60;;;;;;;-141.97;33.47;47461.41;4993206;28;20202;-87
2022/09/21 10:54:26;;;;;;;2.90;1.83;;;;;;;-141.97;33.75;47411.44;4993169;28;20250;-86
2022/09/21 10:56:59;;;;;;;3.50;2.13;;;;;;;-141.97;33.14;47482.56;4993071;28;20270;-88
2022/09/21 10:59:28;;;;;;;3.77;2.00;;;;;;;-141.97;33.36;47353.78;4976594;28;20199;-88
2022/09/21 11:01:56;;;;;;;1.70;1.30;;;;;;;-141.97;33.47;47463.34;4992540;28;20613;-87
2022/09/21 11:04:35;;;;;;;3.63;1.10;;;;;;;-141.97;31.93;47430.66;4992181;28;20223;-87
2022/09/21 11:07:26;;;;;;;3.43;1.10;;;;;;;-141.97;31.61;47471.03;4993339;28;20258;-88
2022/09/21 11:10:06;;;;;;;2.07;1.10;;;;;;;-141.97;30.49;47442.19;5007917;28;20281;-86
2022/09/21 11:12:57;;;;;;;1.60;1.17;;;;;;;-141.97;30.79;47401.84;5029701;28;20169;-87
2022/09/21 11:15:41;;;;;;;1.17;1.07;;;;;;;-141.97;32.07;47634.41;5015557;28;20766;-87
2022/09/21 11:18:19;;;;;;;2.63;1.20;;;;;;;-141.97;32.61;47426.81;5015265;28;20174;-87
2022/09/21 11:21:28;;;;;;;1.30;1.20;;;;;;;-141.97;32.51;47457.56;5046772;28;20178;-87
2022/09/21 11:24:11;;;;;;;2.47;1.10;;;;;;;-141.97;32.80;47449.88;4993840;28;20294;-87
2022/09/21 11:26:43;;;;;;;1.23;1.13;;;;;;;-141.97;32.54;47455.66;4977764;28;20176;-86
2022/09/21 11:29:22;;;;;;;1.57;1.20;;;;;;;-141.97;33.51;47386.47;4993899;28;20187;-88
2022/09/21 11:31:56;;;;;;;2.60;1.40;;;;;;;-141.97;33.23;47459.50;4993691;28;20183;-88
2022/09/21 11:34:40;;;;;;;2.40;1.13;;;;;;;-141.97;33.41;47447.97;4992818;28;20198;-88
2022/09/21 11:37:25;;;;;;;3.53;1.80;;;;;;;-141.97;33.01;47463.34;4993045;28;20746;-86
2022/09/21 11:39:53;;;;;;;2.10;1.40;;;;;;;-141.97;32.92;47490.25;4992669;28;20191;-86